Terminal Aerodrome Forecast
Issued by NWS Charleston, WV

Current Version | Previous Version | Graphics & Text | Print | Product List | Glossary On
Versions: 1 2 3 4 5 6 7 8 9 10 11 12 13 14 15 16 17 18 19 20 21 22 23 24 25 26
000
FTUS41 KRLX 150400 AAD
TAFBKW
TAF AMD
KBKW 150444Z 1505/1524 00000KT 1/4SM FG BKN007
      TEMPO 1505/1507 3/4SM BR SCT008 BKN025
     FM151300 VRB03KT 3SM BR BKN015
     FM151400 22004KT P6SM BKN015
     FM151600 24006KT P6SM BKN025=

USA.gov is the U.S. government's official web portal to all federal, state and local government web resources and services.